sensor_id;sensor_type;location;lat;lon;timestamp;P1;durP1;ratioP1;P2;durP2;ratioP2
8993;SDS011;4532;50.886;4.700;2023-04-25T00:01:56;13.50;;;5.27;;
8993;SDS011;4532;50.886;4.700;2023-04-25T00:04:29;10.07;;;4.70;;
8993;SDS011;4532;50.886;4.700;2023-04-25T00:07:03;12.73;;;5.00;;
8993;SDS011;4532;50.886;4.700;2023-04-25T00:09:31;13.33;;;4.67;;
8993;SDS011;4532;50.886;4.700;2023-04-25T00:11:58;10.80;;;4.43;;
8993;SDS011;4532;50.886;4.700;2023-04-25T00:14:33;12.37;;;5.00;;
8993;SDS011;4532;50.886;4.700;2023-04-25T00:17:02;9.27;;;4.57;;
8993;SDS011;4532;50.886;4.700;2023-04-25T00:19:33;11.33;;;5.13;;
8993;SDS011;4532;50.886;4.700;2023-04-25T00:22:04;13.60;;;4.90;;
8993;SDS011;4532;50.886;4.700;2023-04-25T00:24:32;13.80;;;4.90;;
8993;SDS011;4532;50.886;4.700;2023-04-25T00:27:01;12.80;;;5.53;;
8993;SDS011;4532;50.886;4.700;2023-04-25T00:29:31;18.20;;;5.33;;
8993;SDS011;4532;50.886;4.700;2023-04-25T00:32:01;10.93;;;4.63;;
8993;SDS011;4532;50.886;4.700;2023-04-25T00:34:33;10.40;;;4.93;;
8993;SDS011;4532;50.886;4.700;2023-04-25T00:37:02;13.70;;;5.47;;
8993;SDS011;4532;50.886;4.700;2023-04-25T00:39:29;12.13;;;4.73;;
8993;SDS011;4532;50.886;4.700;2023-04-25T00:41:56;13.70;;;5.13;;
8993;SDS011;4532;50.886;4.700;2023-04-25T00:44:24;13.53;;;4.70;;
8993;SDS011;4532;50.886;4.700;2023-04-25T00:46:54;12.40;;;4.73;;
8993;SDS011;4532;50.886;4.700;2023-04-25T00:49:21;10.70;;;5.17;;
8993;SDS011;4532;50.886;4.700;2023-04-25T00:51:50;12.00;;;5.03;;
8993;SDS011;4532;50.886;4.700;2023-04-25T00:54:22;15.87;;;5.20;;
8993;SDS011;4532;50.886;4.700;2023-04-25T00:56:55;11.33;;;5.47;;
8993;SDS011;4532;50.886;4.700;2023-04-25T00:59:25;14.23;;;5.43;;
8993;SDS011;4532;50.886;4.700;2023-04-25T01:01:56;13.47;;;5.90;;
8993;SDS011;4532;50.886;4.700;2023-04-25T01:04:23;12.30;;;4.87;;
8993;SDS011;4532;50.886;4.700;2023-04-25T01:06:50;11.90;;;4.83;;
8993;SDS011;4532;50.886;4.700;2023-04-25T01:09:21;18.30;;;5.80;;
8993;SDS011;4532;50.886;4.700;2023-04-25T01:11:50;13.07;;;5.47;;
8993;SDS011;4532;50.886;4.700;2023-04-25T01:14:24;12.27;;;5.20;;
8993;SDS011;4532;50.886;4.700;2023-04-25T01:16:53;13.00;;;5.60;;
8993;SDS011;4532;50.886;4.700;2023-04-25T01:19:24;13.20;;;6.00;;
8993;SDS011;4532;50.886;4.700;2023-04-25T01:21:53;11.23;;;5.40;;
8993;SDS011;4532;50.886;4.700;2023-04-25T01:24:23;11.30;;;5.40;;
8993;SDS011;4532;50.886;4.700;2023-04-25T01:26:50;11.40;;;5.50;;
8993;SDS011;4532;50.886;4.700;2023-04-25T01:29:18;14.57;;;5.17;;
8993;SDS011;4532;50.886;4.700;2023-04-25T01:31:49;11.87;;;5.40;;
8993;SDS011;4532;50.886;4.700;2023-04-25T01:34:17;13.73;;;5.23;;
8993;SDS011;4532;50.886;4.700;2023-04-25T01:36:49;10.50;;;5.00;;
8993;SDS011;4532;50.886;4.700;2023-04-25T01:39:19;14.77;;;6.07;;
8993;SDS011;4532;50.886;4.700;2023-04-25T01:41:47;13.50;;;5.30;;
8993;SDS011;4532;50.886;4.700;2023-04-25T01:44:16;14.50;;;5.10;;
8993;SDS011;4532;50.886;4.700;2023-04-25T01:46:48;12.73;;;4.97;;
8993;SDS011;4532;50.886;4.700;2023-04-25T01:49:20;13.40;;;5.10;;
8993;SDS011;4532;50.886;4.700;2023-04-25T01:51:47;12.10;;;4.57;;
8993;SDS011;4532;50.886;4.700;2023-04-25T01:54:17;11.97;;;4.93;;
8993;SDS011;4532;50.886;4.700;2023-04-25T01:56:51;15.13;;;4.93;;
8993;SDS011;4532;50.886;4.700;2023-04-25T01:59:23;13.03;;;5.37;;
8993;SDS011;4532;50.886;4.700;2023-04-25T02:01:53;16.77;;;5.13;;
8993;SDS011;4532;50.886;4.700;2023-04-25T02:04:20;11.03;;;4.20;;
8993;SDS011;4532;50.886;4.700;2023-04-25T02:06:50;11.83;;;4.80;;
8993;SDS011;4532;50.886;4.700;2023-04-25T02:09:17;12.13;;;4.00;;
8993;SDS011;4532;50.886;4.700;2023-04-25T02:11:47;13.70;;;4.83;;
8993;SDS011;4532;50.886;4.700;2023-04-25T02:14:14;13.93;;;4.53;;
8993;SDS011;4532;50.886;4.700;2023-04-25T02:16:44;12.97;;;5.10;;
8993;SDS011;4532;50.886;4.700;2023-04-25T02:19:12;12.43;;;4.53;;
8993;SDS011;4532;50.886;4.700;2023-04-25T02:21:40;14.43;;;4.87;;
8993;SDS011;4532;50.886;4.700;2023-04-25T02:24:07;13.17;;;4.70;;
8993;SDS011;4532;50.886;4.700;2023-04-25T02:26:34;16.27;;;4.90;;
8993;SDS011;4532;50.886;4.700;2023-04-25T02:29:01;11.27;;;4.10;;
8993;SDS011;4532;50.886;4.700;2023-04-25T02:31:31;15.97;;;4.90;;
8993;SDS011;4532;50.886;4.700;2023-04-25T02:33:58;13.43;;;4.73;;
8993;SDS011;4532;50.886;4.700;2023-04-25T02:36:30;11.57;;;4.50;;
8993;SDS011;4532;50.886;4.700;2023-04-25T02:39:00;13.67;;;4.70;;
8993;SDS011;4532;50.886;4.700;2023-04-25T02:41:29;11.97;;;4.40;;
8993;SDS011;4532;50.886;4.700;2023-04-25T02:43:59;13.40;;;4.53;;
8993;SDS011;4532;50.886;4.700;2023-04-25T02:46:30;19.37;;;5.20;;
8993;SDS011;4532;50.886;4.700;2023-04-25T02:49:05;14.40;;;4.93;;
8993;SDS011;4532;50.886;4.700;2023-04-25T02:51:33;17.73;;;5.03;;
8993;SDS011;4532;50.886;4.700;2023-04-25T02:54:02;12.90;;;4.40;;
8993;SDS011;4532;50.886;4.700;2023-04-25T02:56:30;10.43;;;3.57;;
8993;SDS011;4532;50.886;4.700;2023-04-25T02:58:57;14.20;;;4.53;;
8993;SDS011;4532;50.886;4.700;2023-04-25T03:01:26;11.67;;;4.07;;
8993;SDS011;4532;50.886;4.700;2023-04-25T03:03:56;13.20;;;4.47;;
8993;SDS011;4532;50.886;4.700;2023-04-25T03:06:28;16.10;;;4.43;;
8993;SDS011;4532;50.886;4.700;2023-04-25T03:08:58;10.90;;;4.30;;
8993;SDS011;4532;50.886;4.700;2023-04-25T03:11:27;11.93;;;4.23;;
8993;SDS011;4532;50.886;4.700;2023-04-25T03:13:57;10.33;;;4.47;;
8993;SDS011;4532;50.886;4.700;2023-04-25T03:16:26;14.20;;;4.70;;
8993;SDS011;4532;50.886;4.700;2023-04-25T03:18:56;10.67;;;4.20;;
8993;SDS011;4532;50.886;4.700;2023-04-25T03:21:31;10.43;;;3.50;;
8993;SDS011;4532;50.886;4.700;2023-04-25T03:24:04;13.10;;;4.73;;
8993;SDS011;4532;50.886;4.700;2023-04-25T03:26:36;13.17;;;5.10;;
8993;SDS011;4532;50.886;4.700;2023-04-25T03:29:06;11.13;;;3.90;;
8993;SDS011;4532;50.886;4.700;2023-04-25T03:31:33;14.70;;;5.17;;
8993;SDS011;4532;50.886;4.700;2023-04-25T03:34:00;14.27;;;4.70;;
8993;SDS011;4532;50.886;4.700;2023-04-25T03:36:27;16.90;;;4.33;;
8993;SDS011;4532;50.886;4.700;2023-04-25T03:38:54;13.60;;;4.90;;
8993;SDS011;4532;50.886;4.700;2023-04-25T03:41:21;16.03;;;5.13;;
8993;SDS011;4532;50.886;4.700;2023-04-25T03:43:49;14.73;;;5.17;;
8993;SDS011;4532;50.886;4.700;2023-04-25T03:46:19;16.97;;;4.50;;
8993;SDS011;4532;50.886;4.700;2023-04-25T03:48:46;18.73;;;5.07;;
8993;SDS011;4532;50.886;4.700;2023-04-25T03:51:13;20.27;;;4.73;;
8993;SDS011;4532;50.886;4.700;2023-04-25T03:53:42;14.70;;;4.43;;
8993;SDS011;4532;50.886;4.700;2023-04-25T03:56:12;14.13;;;4.10;;
8993;SDS011;4532;50.886;4.700;2023-04-25T03:58:39;17.07;;;4.57;;
8993;SDS011;4532;50.886;4.700;2023-04-25T04:01:09;18.20;;;4.80;;
8993;SDS011;4532;50.886;4.700;2023-04-25T04:03:36;14.27;;;4.10;;
8993;SDS011;4532;50.886;4.700;2023-04-25T04:06:05;14.47;;;4.13;;
8993;SDS011;4532;50.886;4.700;2023-04-25T04:08:33;16.03;;;4.60;;
8993;SDS011;4532;50.886;4.700;2023-04-25T04:11:00;15.40;;;3.87;;
8993;SDS011;4532;50.886;4.700;2023-04-25T04:13:32;16.93;;;4.20;;
8993;SDS011;4532;50.886;4.700;2023-04-25T04:15:59;12.90;;;3.40;;
8993;SDS011;4532;50.886;4.700;2023-04-25T04:18:26;10.03;;;3.27;;
8993;SDS011;4532;50.886;4.700;2023-04-25T04:20:54;15.70;;;3.80;;
8993;SDS011;4532;50.886;4.700;2023-04-25T04:23:21;12.27;;;3.60;;
8993;SDS011;4532;50.886;4.700;2023-04-25T04:25:49;11.33;;;3.70;;
8993;SDS011;4532;50.886;4.700;2023-04-25T04:28:18;12.73;;;3.83;;
8993;SDS011;4532;50.886;4.700;2023-04-25T04:30:45;11.20;;;3.90;;
8993;SDS011;4532;50.886;4.700;2023-04-25T04:33:21;9.83;;;3.67;;
8993;SDS011;4532;50.886;4.700;2023-04-25T04:35:55;9.30;;;3.50;;
8993;SDS011;4532;50.886;4.700;2023-04-25T04:38:25;13.90;;;3.83;;
8993;SDS011;4532;50.886;4.700;2023-04-25T04:40:57;9.93;;;3.70;;
8993;SDS011;4532;50.886;4.700;2023-04-25T04:43:29;11.20;;;3.90;;
8993;SDS011;4532;50.886;4.700;2023-04-25T04:45:56;15.43;;;3.77;;
8993;SDS011;4532;50.886;4.700;2023-04-25T04:48:29;14.07;;;4.03;;
8993;SDS011;4532;50.886;4.700;2023-04-25T04:51:01;14.03;;;4.47;;
8993;SDS011;4532;50.886;4.700;2023-04-25T04:53:29;13.07;;;4.00;;
8993;SDS011;4532;50.886;4.700;2023-04-25T04:55:58;13.23;;;4.50;;
8993;SDS011;4532;50.886;4.700;2023-04-25T04:58:28;13.63;;;4.10;;
8993;SDS011;4532;50.886;4.700;2023-04-25T05:00:57;13.07;;;4.43;;
8993;SDS011;4532;50.886;4.700;2023-04-25T05:03:27;12.60;;;4.33;;
8993;SDS011;4532;50.886;4.700;2023-04-25T05:05:55;10.53;;;3.60;;
8993;SDS011;4532;50.886;4.700;2023-04-25T05:08:24;13.33;;;4.50;;
8993;SDS011;4532;50.886;4.700;2023-04-25T05:10:51;11.97;;;4.07;;
8993;SDS011;4532;50.886;4.700;2023-04-25T05:13:21;7.83;;;3.67;;
8993;SDS011;4532;50.886;4.700;2023-04-25T05:15:50;10.03;;;4.00;;
8993;SDS011;4532;50.886;4.700;2023-04-25T05:18:17;10.27;;;3.93;;
8993;SDS011;4532;50.886;4.700;2023-04-25T05:20:47;10.27;;;4.10;;
8993;SDS011;4532;50.886;4.700;2023-04-25T05:23:19;9.90;;;4.43;;
8993;SDS011;4532;50.886;4.700;2023-04-25T05:25:47;10.17;;;3.80;;
8993;SDS011;4532;50.886;4.700;2023-04-25T05:28:14;12.43;;;4.00;;
8993;SDS011;4532;50.886;4.700;2023-04-25T05:30:41;15.00;;;4.90;;
8993;SDS011;4532;50.886;4.700;2023-04-25T05:33:15;12.33;;;4.40;;
8993;SDS011;4532;50.886;4.700;2023-04-25T05:35:45;8.87;;;4.20;;
8993;SDS011;4532;50.886;4.700;2023-04-25T05:38:15;13.97;;;4.20;;
8993;SDS011;4532;50.886;4.700;2023-04-25T05:40:42;12.00;;;5.03;;
8993;SDS011;4532;50.886;4.700;2023-04-25T05:43:11;13.70;;;4.37;;
8993;SDS011;4532;50.886;4.700;2023-04-25T05:45:41;16.10;;;4.77;;
8993;SDS011;4532;50.886;4.700;2023-04-25T05:48:08;13.30;;;4.37;;
8993;SDS011;4532;50.886;4.700;2023-04-25T05:50:37;10.37;;;4.40;;
8993;SDS011;4532;50.886;4.700;2023-04-25T05:53:07;14.93;;;4.50;;
8993;SDS011;4532;50.886;4.700;2023-04-25T05:55:37;11.93;;;4.43;;
8993;SDS011;4532;50.886;4.700;2023-04-25T05:58:06;16.37;;;4.87;;
8993;SDS011;4532;50.886;4.700;2023-04-25T06:00:36;10.83;;;4.63;;
8993;SDS011;4532;50.886;4.700;2023-04-25T06:03:03;13.30;;;4.57;;
8993;SDS011;4532;50.886;4.700;2023-04-25T06:05:35;10.03;;;4.03;;
8993;SDS011;4532;50.886;4.700;2023-04-25T06:08:05;10.97;;;3.93;;
8993;SDS011;4532;50.886;4.700;2023-04-25T06:10:32;9.90;;;4.73;;
8993;SDS011;4532;50.886;4.700;2023-04-25T06:13:01;14.03;;;5.50;;
8993;SDS011;4532;50.886;4.700;2023-04-25T06:15:28;15.97;;;5.27;;
8993;SDS011;4532;50.886;4.700;2023-04-25T06:18:00;10.60;;;4.07;;
8993;SDS011;4532;50.886;4.700;2023-04-25T06:20:32;14.17;;;5.20;;
8993;SDS011;4532;50.886;4.700;2023-04-25T06:23:04;15.87;;;5.20;;
8993;SDS011;4532;50.886;4.700;2023-04-25T06:25:34;13.33;;;4.50;;
8993;SDS011;4532;50.886;4.700;2023-04-25T06:28:05;12.60;;;4.70;;
8993;SDS011;4532;50.886;4.700;2023-04-25T06:30:37;10.83;;;4.30;;
8993;SDS011;4532;50.886;4.700;2023-04-25T06:33:04;16.20;;;4.73;;
8993;SDS011;4532;50.886;4.700;2023-04-25T06:35:34;13.13;;;4.80;;
8993;SDS011;4532;50.886;4.700;2023-04-25T06:38:04;14.53;;;4.90;;
8993;SDS011;4532;50.886;4.700;2023-04-25T06:40:33;13.37;;;4.47;;
8993;SDS011;4532;50.886;4.700;2023-04-25T06:43:03;13.97;;;4.70;;
8993;SDS011;4532;50.886;4.700;2023-04-25T06:45:33;15.30;;;5.23;;
8993;SDS011;4532;50.886;4.700;2023-04-25T06:48:05;10.27;;;4.90;;
8993;SDS011;4532;50.886;4.700;2023-04-25T06:50:34;14.37;;;4.83;;
8993;SDS011;4532;50.886;4.700;2023-04-25T06:53:04;11.07;;;4.90;;
8993;SDS011;4532;50.886;4.700;2023-04-25T06:55:31;12.77;;;5.27;;
8993;SDS011;4532;50.886;4.700;2023-04-25T06:57:58;12.67;;;4.17;;
8993;SDS011;4532;50.886;4.700;2023-04-25T07:00:31;11.53;;;4.90;;
8993;SDS011;4532;50.886;4.700;2023-04-25T07:03:00;13.80;;;5.43;;
8993;SDS011;4532;50.886;4.700;2023-04-25T07:05:32;15.40;;;5.47;;
8993;SDS011;4532;50.886;4.700;2023-04-25T07:08:01;12.97;;;4.87;;
8993;SDS011;4532;50.886;4.700;2023-04-25T07:10:33;12.97;;;4.37;;
8993;SDS011;4532;50.886;4.700;2023-04-25T07:13:03;11.70;;;5.03;;
8993;SDS011;4532;50.886;4.700;2023-04-25T07:15:38;12.30;;;4.30;;
8993;SDS011;4532;50.886;4.700;2023-04-25T07:18:08;10.00;;;4.17;;
8993;SDS011;4532;50.886;4.700;2023-04-25T07:20:40;13.67;;;5.10;;
8993;SDS011;4532;50.886;4.700;2023-04-25T07:23:12;14.13;;;4.50;;
8993;SDS011;4532;50.886;4.700;2023-04-25T07:25:42;13.83;;;4.33;;
8993;SDS011;4532;50.886;4.700;2023-04-25T07:28:13;11.17;;;4.47;;
8993;SDS011;4532;50.886;4.700;2023-04-25T07:30:45;11.43;;;4.27;;
8993;SDS011;4532;50.886;4.700;2023-04-25T07:33:14;12.83;;;4.40;;
8993;SDS011;4532;50.886;4.700;2023-04-25T07:35:46;15.53;;;4.50;;
8993;SDS011;4532;50.886;4.700;2023-04-25T07:38:13;13.13;;;4.23;;
8993;SDS011;4532;50.886;4.700;2023-04-25T07:40:43;12.23;;;4.47;;
8993;SDS011;4532;50.886;4.700;2023-04-25T07:43:13;15.63;;;4.30;;
8993;SDS011;4532;50.886;4.700;2023-04-25T07:45:43;14.37;;;4.20;;
8993;SDS011;4532;50.886;4.700;2023-04-25T07:48:19;12.10;;;4.37;;
8993;SDS011;4532;50.886;4.700;2023-04-25T07:50:46;15.13;;;4.77;;
8993;SDS011;4532;50.886;4.700;2023-04-25T07:53:16;13.13;;;4.20;;
8993;SDS011;4532;50.886;4.700;2023-04-25T07:55:47;10.80;;;4.47;;
8993;SDS011;4532;50.886;4.700;2023-04-25T07:58:19;13.97;;;3.97;;
8993;SDS011;4532;50.886;4.700;2023-04-25T08:00:48;13.60;;;4.20;;
8993;SDS011;4532;50.886;4.700;2023-04-25T08:03:16;14.67;;;4.30;;
8993;SDS011;4532;50.886;4.700;2023-04-25T08:05:48;15.80;;;4.13;;
8993;SDS011;4532;50.886;4.700;2023-04-25T08:08:16;17.50;;;5.23;;
8993;SDS011;4532;50.886;4.700;2023-04-25T08:10:45;14.13;;;4.40;;
8993;SDS011;4532;50.886;4.700;2023-04-25T08:13:14;11.00;;;4.67;;
8993;SDS011;4532;50.886;4.700;2023-04-25T08:15:41;14.77;;;4.07;;
8993;SDS011;4532;50.886;4.700;2023-04-25T08:18:16;10.67;;;4.03;;
8993;SDS011;4532;50.886;4.700;2023-04-25T08:20:43;11.03;;;4.20;;
8993;SDS011;4532;50.886;4.700;2023-04-25T08:23:11;11.37;;;3.90;;
8993;SDS011;4532;50.886;4.700;2023-04-25T08:25:42;9.23;;;3.50;;
8993;SDS011;4532;50.886;4.700;2023-04-25T08:28:10;10.73;;;3.27;;
8993;SDS011;4532;50.886;4.700;2023-04-25T08:30:37;10.67;;;3.30;;
8993;SDS011;4532;50.886;4.700;2023-04-25T08:33:04;8.57;;;2.63;;
8993;SDS011;4532;50.886;4.700;2023-04-25T08:35:35;9.97;;;3.03;;
8993;SDS011;4532;50.886;4.700;2023-04-25T08:38:02;13.23;;;3.13;;
8993;SDS011;4532;50.886;4.700;2023-04-25T08:40:35;11.77;;;3.20;;
8993;SDS011;4532;50.886;4.700;2023-04-25T08:43:09;8.20;;;3.07;;
8993;SDS011;4532;50.886;4.700;2023-04-25T08:45:43;10.23;;;2.80;;
8993;SDS011;4532;50.886;4.700;2023-04-25T08:48:14;10.00;;;3.23;;
8993;SDS011;4532;50.886;4.700;2023-04-25T08:50:50;8.77;;;3.00;;
8993;SDS011;4532;50.886;4.700;2023-04-25T08:53:26;10.23;;;2.60;;
8993;SDS011;4532;50.886;4.700;2023-04-25T08:55:57;9.93;;;3.70;;
8993;SDS011;4532;50.886;4.700;2023-04-25T08:58:25;6.93;;;2.77;;
8993;SDS011;4532;50.886;4.700;2023-04-25T09:00:58;9.03;;;3.63;;
8993;SDS011;4532;50.886;4.700;2023-04-25T09:03:31;5.97;;;2.50;;
8993;SDS011;4532;50.886;4.700;2023-04-25T09:06:01;10.37;;;2.73;;
8993;SDS011;4532;50.886;4.700;2023-04-25T09:08:28;10.00;;;3.40;;
8993;SDS011;4532;50.886;4.700;2023-04-25T09:10:59;9.90;;;3.23;;
8993;SDS011;4532;50.886;4.700;2023-04-25T09:13:28;7.90;;;3.07;;
8993;SDS011;4532;50.886;4.700;2023-04-25T09:15:58;7.70;;;2.80;;
8993;SDS011;4532;50.886;4.700;2023-04-25T09:18:29;7.43;;;2.80;;
8993;SDS011;4532;50.886;4.700;2023-04-25T09:21:06;13.13;;;3.37;;
8993;SDS011;4532;50.886;4.700;2023-04-25T09:23:45;7.93;;;3.20;;
8993;SDS011;4532;50.886;4.700;2023-04-25T09:26:15;9.57;;;3.00;;
8993;SDS011;4532;50.886;4.700;2023-04-25T09:28:43;9.17;;;3.27;;
8993;SDS011;4532;50.886;4.700;2023-04-25T09:31:12;7.17;;;2.27;;
8993;SDS011;4532;50.886;4.700;2023-04-25T09:33:58;6.83;;;2.70;;
8993;SDS011;4532;50.886;4.700;2023-04-25T09:36:31;7.70;;;2.80;;
8993;SDS011;4532;50.886;4.700;2023-04-25T09:39:03;8.23;;;2.63;;
8993;SDS011;4532;50.886;4.700;2023-04-25T09:41:46;6.77;;;2.80;;
8993;SDS011;4532;50.886;4.700;2023-04-25T09:44:13;12.27;;;2.80;;
8993;SDS011;4532;50.886;4.700;2023-04-25T09:46:46;5.60;;;2.60;;
8993;SDS011;4532;50.886;4.700;2023-04-25T09:49:22;9.83;;;2.80;;
8993;SDS011;4532;50.886;4.700;2023-04-25T09:51:55;7.97;;;2.73;;
8993;SDS011;4532;50.886;4.700;2023-04-25T09:54:24;7.57;;;2.37;;
8993;SDS011;4532;50.886;4.700;2023-04-25T09:56:52;7.20;;;2.30;;
8993;SDS011;4532;50.886;4.700;2023-04-25T09:59:20;8.50;;;2.27;;
8993;SDS011;4532;50.886;4.700;2023-04-25T10:01:51;7.23;;;2.23;;
8993;SDS011;4532;50.886;4.700;2023-04-25T10:04:22;7.00;;;1.77;;
8993;SDS011;4532;50.886;4.700;2023-04-25T10:06:57;8.33;;;2.70;;
8993;SDS011;4532;50.886;4.700;2023-04-25T10:09:28;6.63;;;1.70;;
8993;SDS011;4532;50.886;4.700;2023-04-25T10:12:02;6.00;;;1.50;;
8993;SDS011;4532;50.886;4.700;2023-04-25T10:14:30;5.47;;;1.60;;
8993;SDS011;4532;50.886;4.700;2023-04-25T10:16:58;5.70;;;1.60;;
8993;SDS011;4532;50.886;4.700;2023-04-25T10:19:26;7.30;;;1.60;;
8993;SDS011;4532;50.886;4.700;2023-04-25T10:24:45;5.50;;;1.43;;
8993;SDS011;4532;50.886;4.700;2023-04-25T10:27:16;6.80;;;1.50;;
8993;SDS011;4532;50.886;4.700;2023-04-25T10:29:44;4.97;;;1.50;;
8993;SDS011;4532;50.886;4.700;2023-04-25T10:32:11;4.37;;;1.43;;
8993;SDS011;4532;50.886;4.700;2023-04-25T10:34:43;5.03;;;1.47;;
8993;SDS011;4532;50.886;4.700;2023-04-25T10:37:13;4.93;;;1.43;;
8993;SDS011;4532;50.886;4.700;2023-04-25T10:39:44;4.27;;;1.90;;
8993;SDS011;4532;50.886;4.700;2023-04-25T10:42:15;5.23;;;1.50;;
8993;SDS011;4532;50.886;4.700;2023-04-25T10:45:00;3.10;;;1.30;;
8993;SDS011;4532;50.886;4.700;2023-04-25T10:47:43;3.87;;;1.23;;
8993;SDS011;4532;50.886;4.700;2023-04-25T10:50:17;5.17;;;1.37;;
8993;SDS011;4532;50.886;4.700;2023-04-25T10:52:46;4.07;;;1.20;;
8993;SDS011;4532;50.886;4.700;2023-04-25T10:55:16;7.07;;;1.43;;
8993;SDS011;4532;50.886;4.700;2023-04-25T10:57:49;2.37;;;1.10;;
8993;SDS011;4532;50.886;4.700;2023-04-25T11:00:17;5.97;;;1.67;;
8993;SDS011;4532;50.886;4.700;2023-04-25T11:02:57;4.93;;;1.80;;
8993;SDS011;4532;50.886;4.700;2023-04-25T11:07:55;4.17;;;1.57;;
8993;SDS011;4532;50.886;4.700;2023-04-25T11:10:46;5.23;;;1.60;;
8993;SDS011;4532;50.886;4.700;2023-04-25T11:13:19;5.07;;;1.80;;
8993;SDS011;4532;50.886;4.700;2023-04-25T11:15:51;6.47;;;1.53;;
8993;SDS011;4532;50.886;4.700;2023-04-25T11:18:42;4.60;;;1.57;;
8993;SDS011;4532;50.886;4.700;2023-04-25T11:21:11;8.23;;;1.90;;
8993;SDS011;4532;50.886;4.700;2023-04-25T11:23:41;3.33;;;1.50;;
8993;SDS011;4532;50.886;4.700;2023-04-25T11:26:14;8.43;;;1.80;;
8993;SDS011;4532;50.886;4.700;2023-04-25T11:28:48;5.23;;;1.47;;
8993;SDS011;4532;50.886;4.700;2023-04-25T11:31:24;8.27;;;1.93;;
8993;SDS011;4532;50.886;4.700;2023-04-25T11:33:54;5.27;;;2.10;;
8993;SDS011;4532;50.886;4.700;2023-04-25T11:36:24;9.67;;;3.43;;
8993;SDS011;4532;50.886;4.700;2023-04-25T11:38:53;5.33;;;2.13;;
8993;SDS011;4532;50.886;4.700;2023-04-25T11:41:21;9.30;;;2.23;;
8993;SDS011;4532;50.886;4.700;2023-04-25T11:43:49;5.00;;;1.67;;
8993;SDS011;4532;50.886;4.700;2023-04-25T11:46:23;7.43;;;1.80;;
8993;SDS011;4532;50.886;4.700;2023-04-25T11:48:53;4.63;;;1.53;;
8993;SDS011;4532;50.886;4.700;2023-04-25T11:51:25;3.97;;;1.40;;
8993;SDS011;4532;50.886;4.700;2023-04-25T11:53:55;3.63;;;1.40;;
8993;SDS011;4532;50.886;4.700;2023-04-25T11:56:24;6.03;;;1.80;;
8993;SDS011;4532;50.886;4.700;2023-04-25T11:58:57;3.83;;;2.00;;
8993;SDS011;4532;50.886;4.700;2023-04-25T12:01:31;5.70;;;2.10;;
8993;SDS011;4532;50.886;4.700;2023-04-25T12:04:17;5.40;;;2.00;;
8993;SDS011;4532;50.886;4.700;2023-04-25T12:06:51;3.37;;;1.60;;
8993;SDS011;4532;50.886;4.700;2023-04-25T12:09:32;4.83;;;1.87;;
8993;SDS011;4532;50.886;4.700;2023-04-25T12:12:02;5.93;;;1.60;;
8993;SDS011;4532;50.886;4.700;2023-04-25T12:14:32;3.83;;;1.30;;
8993;SDS011;4532;50.886;4.700;2023-04-25T12:17:05;6.67;;;1.73;;
8993;SDS011;4532;50.886;4.700;2023-04-25T12:19:36;7.00;;;1.97;;
8993;SDS011;4532;50.886;4.700;2023-04-25T12:22:23;6.67;;;1.67;;
8993;SDS011;4532;50.886;4.700;2023-04-25T12:24:53;4.30;;;1.60;;
8993;SDS011;4532;50.886;4.700;2023-04-25T12:27:27;6.23;;;1.90;;
8993;SDS011;4532;50.886;4.700;2023-04-25T12:29:55;4.97;;;1.63;;
8993;SDS011;4532;50.886;4.700;2023-04-25T12:32:26;5.87;;;1.60;;
8993;SDS011;4532;50.886;4.700;2023-04-25T12:34:57;5.53;;;1.80;;
8993;SDS011;4532;50.886;4.700;2023-04-25T12:37:31;3.33;;;1.57;;
8993;SDS011;4532;50.886;4.700;2023-04-25T12:39:58;4.50;;;1.77;;
8993;SDS011;4532;50.886;4.700;2023-04-25T12:42:30;7.27;;;1.77;;
8993;SDS011;4532;50.886;4.700;2023-04-25T12:45:02;2.77;;;1.40;;
8993;SDS011;4532;50.886;4.700;2023-04-25T12:47:29;4.10;;;1.50;;
8993;SDS011;4532;50.886;4.700;2023-04-25T12:49:56;4.47;;;1.57;;
8993;SDS011;4532;50.886;4.700;2023-04-25T12:52:24;4.53;;;1.93;;
8993;SDS011;4532;50.886;4.700;2023-04-25T12:54:56;3.43;;;1.53;;
8993;SDS011;4532;50.886;4.700;2023-04-25T12:57:23;5.00;;;1.50;;
8993;SDS011;4532;50.886;4.700;2023-04-25T12:59:52;2.10;;;1.27;;
8993;SDS011;4532;50.886;4.700;2023-04-25T13:02:19;4.90;;;1.60;;
8993;SDS011;4532;50.886;4.700;2023-04-25T13:04:49;3.13;;;1.47;;
8993;SDS011;4532;50.886;4.700;2023-04-25T13:07:19;3.17;;;1.50;;
8993;SDS011;4532;50.886;4.700;2023-04-25T13:09:46;4.00;;;1.30;;
8993;SDS011;4532;50.886;4.700;2023-04-25T13:12:16;3.47;;;1.00;;
8993;SDS011;4532;50.886;4.700;2023-04-25T13:14:45;5.67;;;1.50;;
8993;SDS011;4532;50.886;4.700;2023-04-25T13:17:17;5.30;;;1.17;;
8993;SDS011;4532;50.886;4.700;2023-04-25T13:19:44;5.40;;;1.20;;
8993;SDS011;4532;50.886;4.700;2023-04-25T13:22:11;6.13;;;1.50;;
8993;SDS011;4532;50.886;4.700;2023-04-25T13:24:42;2.93;;;1.10;;
8993;SDS011;4532;50.886;4.700;2023-04-25T13:27:09;3.13;;;1.73;;
8993;SDS011;4532;50.886;4.700;2023-04-25T13:29:37;2.93;;;1.17;;
8993;SDS011;4532;50.886;4.700;2023-04-25T13:32:09;3.07;;;1.20;;
8993;SDS011;4532;50.886;4.700;2023-04-25T13:34:36;5.37;;;1.90;;
8993;SDS011;4532;50.886;4.700;2023-04-25T13:37:06;6.00;;;1.73;;
8993;SDS011;4532;50.886;4.700;2023-04-25T13:39:38;3.07;;;1.50;;
8993;SDS011;4532;50.886;4.700;2023-04-25T13:42:10;2.87;;;1.07;;
8993;SDS011;4532;50.886;4.700;2023-04-25T13:44:37;4.30;;;1.20;;
8993;SDS011;4532;50.886;4.700;2023-04-25T13:47:07;3.53;;;1.30;;
8993;SDS011;4532;50.886;4.700;2023-04-25T13:49:34;6.53;;;1.67;;
8993;SDS011;4532;50.886;4.700;2023-04-25T13:52:10;4.00;;;1.50;;
8993;SDS011;4532;50.886;4.700;2023-04-25T13:54:38;4.67;;;1.40;;
8993;SDS011;4532;50.886;4.700;2023-04-25T13:57:05;3.37;;;1.30;;
8993;SDS011;4532;50.886;4.700;2023-04-25T13:59:35;4.03;;;1.37;;
8993;SDS011;4532;50.886;4.700;2023-04-25T14:02:05;5.33;;;1.77;;
8993;SDS011;4532;50.886;4.700;2023-04-25T14:04:33;4.70;;;1.33;;
8993;SDS011;4532;50.886;4.700;2023-04-25T14:07:03;3.37;;;1.10;;
8993;SDS011;4532;50.886;4.700;2023-04-25T14:09:34;5.20;;;1.43;;
8993;SDS011;4532;50.886;4.700;2023-04-25T14:12:02;4.87;;;1.27;;
8993;SDS011;4532;50.886;4.700;2023-04-25T14:14:32;5.40;;;1.43;;
8993;SDS011;4532;50.886;4.700;2023-04-25T14:16:59;2.93;;;1.40;;
8993;SDS011;4532;50.886;4.700;2023-04-25T14:19:29;3.47;;;1.50;;
8993;SDS011;4532;50.886;4.700;2023-04-25T14:21:59;6.30;;;1.50;;
8993;SDS011;4532;50.886;4.700;2023-04-25T14:24:28;3.67;;;1.50;;
8993;SDS011;4532;50.886;4.700;2023-04-25T14:26:58;5.43;;;1.60;;
8993;SDS011;4532;50.886;4.700;2023-04-25T14:29:25;7.37;;;1.53;;
8993;SDS011;4532;50.886;4.700;2023-04-25T14:31:52;1.97;;;1.10;;
8993;SDS011;4532;50.886;4.700;2023-04-25T14:34:24;5.50;;;1.40;;
8993;SDS011;4532;50.886;4.700;2023-04-25T14:36:57;3.50;;;1.10;;
8993;SDS011;4532;50.886;4.700;2023-04-25T14:39:24;3.77;;;1.37;;
8993;SDS011;4532;50.886;4.700;2023-04-25T14:41:58;3.00;;;1.20;;
8993;SDS011;4532;50.886;4.700;2023-04-25T14:44:25;4.73;;;1.40;;
8993;SDS011;4532;50.886;4.700;2023-04-25T14:46:52;3.57;;;1.67;;
8993;SDS011;4532;50.886;4.700;2023-04-25T14:49:20;4.07;;;1.33;;
8993;SDS011;4532;50.886;4.700;2023-04-25T14:51:49;3.03;;;1.27;;
8993;SDS011;4532;50.886;4.700;2023-04-25T14:54:17;3.47;;;1.40;;
8993;SDS011;4532;50.886;4.700;2023-04-25T14:56:45;5.00;;;1.50;;
8993;SDS011;4532;50.886;4.700;2023-04-25T14:59:19;2.87;;;1.30;;
8993;SDS011;4532;50.886;4.700;2023-04-25T15:01:46;4.40;;;1.30;;
8993;SDS011;4532;50.886;4.700;2023-04-25T15:04:17;7.90;;;1.80;;
8993;SDS011;4532;50.886;4.700;2023-04-25T15:06:46;5.03;;;1.20;;
8993;SDS011;4532;50.886;4.700;2023-04-25T15:09:14;5.70;;;1.70;;
8993;SDS011;4532;50.886;4.700;2023-04-25T15:11:44;3.37;;;1.67;;
8993;SDS011;4532;50.886;4.700;2023-04-25T15:14:17;5.00;;;1.30;;
8993;SDS011;4532;50.886;4.700;2023-04-25T15:16:44;6.03;;;1.53;;
8993;SDS011;4532;50.886;4.700;2023-04-25T15:19:14;5.70;;;1.43;;
8993;SDS011;4532;50.886;4.700;2023-04-25T15:21:43;5.00;;;1.57;;
8993;SDS011;4532;50.886;4.700;2023-04-25T15:24:10;5.63;;;1.20;;
8993;SDS011;4532;50.886;4.700;2023-04-25T15:26:37;3.63;;;1.00;;
8993;SDS011;4532;50.886;4.700;2023-04-25T15:29:07;4.40;;;1.50;;
8993;SDS011;4532;50.886;4.700;2023-04-25T15:31:36;2.27;;;1.00;;